Cedar City, Utah Weather observations

Data are for observation ending at time listed.
 Day   Time    Ave.   Ave.  Ave.  Vector   Max.   Stn.    Total    Solar   Ave.  
  of    of     Air    Rel.  Wind   Wind    Wind   Baro.  Precip.   Rad.    Soil  
Year   Day     Temp.  Hum.  Speed  Dir.    Gust   Pres.                    Temp. 
2015   (MST)    F      %     mph   deg.    mph     mb.     in.     W/m2     F   
------------------------------------------------------------------------------
 182   12:10   88.1    24    0.9     3      5.3   825.8    0.00     982    82.0
 182   12:20   88.7    23    1.5    30      8.4   825.9    0.00     990    82.1
 182   12:30   89.4    21    0.4   286      3.6   825.8    0.00     992    82.2
 182   12:40   89.7    21    1.2   300      6.9   825.7    0.00     955    82.3
 182   12:50   90.3    21    2.3    54      7.2   825.8    0.00     902    82.5
 182   13:00   88.1    21    2.6    70      7.2   825.6    0.00     194    82.5
 182   13:10   88.2    22    1.6    93      4.7   825.4    0.00     285    82.6
 182   13:20   89.7    21    1.1    67      3.3   825.2    0.00     724    82.7
 182   13:30   90.8    21    0.8   163      5.6   825.1    0.00     653    82.8
 182   13:40   92.6    20    0.3    26      4.7   825.1    0.00     987    83.0
 182   13:50   92.8    19    0.5    52      4.7   825.0    0.00     450    83.1
 182   14:00   89.5    21    1.2   337      7.7   824.9    0.00     147    83.2
 182   14:10   89.5    20    1.2   264      3.2   824.9    0.00     144    83.3
 182   14:20   90.3    19    1.1   221      2.3   824.7    0.00     141    83.4
 182   14:30   89.6    21    1.7   315      6.1   824.6    0.00     146    83.4
 182   14:40   88.5    22    2.5     4      5.6   824.5    0.00     158    83.5
 182   14:50   88.4    21    3.9    26      8.0   824.5    0.00     156    83.6
 182   15:00   88.3    21    2.8    26      6.7   824.6    0.00     159    83.7
 182   15:10   88.4    21    2.7    12      6.3   824.5    0.00     172    83.8
 182   15:20   88.4    21    3.1     6      8.0   824.3    0.00     238    83.9
 182   15:30   88.9    22    2.0    19      5.2   824.2    0.00     352    84.0
 182   15:40   89.5    21    3.4    44      6.7   824.1    0.00     421    84.0
 182   15:50   89.8    20    3.2    28      6.7   824.0    0.00     453    84.1
 182   16:00   89.9    20    3.7    35      8.3   824.1    0.00     454    84.1
 182   16:10   90.1    20    2.5    25      6.1   823.9    0.00     377    84.2
 182   16:20   89.7    20    2.5    12      6.4   823.9    0.00     326    84.1
 182   16:30   89.6    20    3.1    30      7.0   823.9    0.00     310    84.2
 182   16:40   89.6    20    2.8    45      7.1   823.9    0.00     284    84.2
 182   16:50   89.3    20    3.0    16      7.7   823.8    0.00     294    84.3
 182   17:00   89.6    20    3.4    25      7.7   823.7    0.00     322    84.4
 182   17:10   89.7    20    3.2    21      7.2   823.6    0.00     345    84.4
 182   17:20   89.7    19    3.0    26      6.9   823.4    0.00     300    84.4
 182   17:30   89.5    19    2.6    32      5.6   823.3    0.00     198    84.5
 182   17:40   88.9    19    3.5    41      6.9   823.3    0.00     105    84.5
 182   17:50   88.6    19    2.5    29      6.1   823.3    0.00      78    84.6
 182   18:00   88.1    20    1.9     8      4.6   823.3    0.00      67    84.6
 182   18:10   87.7    21    2.2   360      4.2   823.2    0.00      68    84.7
 182   18:20   87.7    21    2.4    74      5.3   823.2    0.00      72    84.8
 182   18:30   87.0    24    4.2    90      7.2   823.4    0.00      72    84.8
 182   18:40   86.4    25    3.1   100      6.4   823.7    0.00      66    84.8
 182   18:50   86.2    25    2.8   117      5.0   823.9    0.00      59    84.8
 182   19:00   85.9    25    3.4    93      6.9   824.0    0.00      50    84.8
 182   19:10   85.2    26    4.1    97      6.7   824.2    0.00      37    84.8
 182   19:20   84.8    26    4.4    99      7.2   824.2    0.00      24    84.8
 182   19:30   84.3    27    4.5    99      7.8   824.2    0.00      16    84.8
 182   19:40   83.9    27    4.2    99      7.7   824.2    0.00      10    84.8
 182   19:50   83.3    28    5.0    98      9.6   824.2    0.00       4    84.7
 182   20:00   82.5    30    3.8   100      8.1   824.4    0.00       3    84.7
 182   20:10   82.1    30    2.6   182      6.8   824.5    0.00       1    84.7
 182   20:20   82.2    29    1.6   150      3.9   824.7    0.00       0    84.6
 182   20:30   81.8    29    1.2   130      2.9   824.7    0.00       0    84.6
 182   20:40   81.0    30    0.7   115      2.1   824.8    0.00       0    84.6
 182   20:50   80.9    30    2.1   104      4.0   824.8    0.00       0    84.5
 182   21:00   80.5    30    3.8    96      6.4   824.9    0.00       0    84.5
 182   21:10   79.8    31    4.8    99      8.7   825.1    0.00       0    84.4
 182   21:20   79.4    31    4.4   100      7.4   825.2    0.00       0    84.4
 182   21:30   79.0    31    5.2   100      8.7   825.3    0.00       0    84.3
 182   21:40   78.5    32    5.3   106     10.0   825.5    0.00       0    84.3
 182   21:50   78.0    32    6.3    95     11.5   825.6    0.00       0    84.2
 182   22:00   78.7    30    6.4    89     11.4   825.7    0.00       0    84.1
 182   22:10   79.9    28    4.8    98      8.3   825.8    0.00       0    84.1
 182   22:20   80.4    26    2.5   115      5.3   825.8    0.00       0    84.0
 182   22:30   81.1    24    3.8   110      7.9   825.9    0.00       0    84.0
 182   22:40   81.3    23    3.7   108      7.7   825.9    0.00       0    83.9
 182   22:50   80.3    25    3.0    46      6.7   826.0    0.00       0    83.8
 182   23:00   80.5    25    1.8   106      3.7   826.2    0.00       0    83.8
 182   23:10   80.0    26    3.4   112      9.1   826.3    0.00       0    83.7
 182   23:20   79.4    26    2.7   112      4.0   826.4    0.00       0    83.7
 182   23:30   78.8    28    3.0    95      7.2   826.4    0.00       0    83.6
 182   23:40   78.0    28    5.5    95     10.4   826.5    0.00       0    83.5
 182   23:50   77.2    28    5.6   102      9.6   826.7    0.00       0    83.5
 183    0:00   76.9    29    5.0   101      7.7   826.8    0.00       0    83.4
 183    0:10   78.5    26    2.9   103      6.1   826.8    0.00       0    83.4
 183    0:20   79.3    26    1.8   310      4.2   826.6    0.00       0    83.3
 183    0:30   79.4    27    2.5   326      5.0   826.7    0.00       0    83.2
 183    0:40   78.8    28    3.4   305      7.5   826.7    0.00       0    83.2
 183    0:50   77.7    30    2.2   296      3.9   826.7    0.00       0    83.1
 183    1:00   77.5    30    3.5   294     14.6   826.6    0.00       0    83.1
 183    1:10   78.2    29    2.4   239      7.5   826.5    0.00       0    83.0
 183    1:20   77.8    30    3.4    58      6.5   826.5    0.00       0    83.0
 183    1:30   77.5    31    2.0   162      4.2   826.5    0.00       0    82.9
 183    1:40   76.6    32    0.9   215      2.0   826.7    0.00       0    82.9
 183    1:50   76.2    35    2.9   229      8.3   826.8    0.00       0    82.8
 183    2:00   75.7    40    6.9   231     13.5   826.9    0.00       0    82.7
 183    2:10   75.2    43    5.2   233     11.0   827.0    0.00       0    82.7
 183    2:20   74.7    43    4.9   225     10.2   827.1    0.00       0    82.6
 183    2:30   74.3    44    3.6   232      7.7   827.1    0.00       0    82.6
 183    2:40   73.9    45    2.2   229      5.0   827.0    0.00       0    82.5
 183    2:50   73.3    46    1.1   277      3.0   826.9    0.00       0    82.5
 183    3:00   73.2    46    1.6   117      2.5   826.9    0.00       0    82.4
 183    3:10   73.2    46    1.0   124      2.3   826.9    0.00       0    82.4
 183    3:20   72.7    46    1.6    90      3.1   826.9    0.00       0    82.3
 183    3:30   73.0    46    1.9   103      3.2   826.9    0.00       0    82.3
 183    3:40   72.8    47    0.8    85      2.0   826.9    0.00       0    82.2
 183    3:50   72.6    47    1.3   140      2.2   826.8    0.00       0    82.1
 183    4:00   72.8    46    2.5    86      5.1   826.8    0.00       0    82.1
 183    4:10   72.9    45    3.3    92      4.8   826.7    0.00       0    82.0
 183    4:20   72.4    45    4.7    99      9.1   826.8    0.00       0    82.0
 183    4:30   71.9    46    4.2    92      7.7   826.8    0.00       0    81.9
 183    4:40   71.6    46    4.0    92      8.0   826.9    0.00       0    81.9
 183    4:50   71.5    46    4.0    85      6.9   826.9    0.00       0    81.8
 183    5:00   71.4    46    4.0   108      6.6   826.9    0.00       0    81.8
 183    5:10   71.5    46    3.3   106      5.7   827.0    0.00       0    81.7
 183    5:20   71.6    45    2.8   113      5.6   827.0    0.00       2    81.6
 183    5:30   71.8    48    3.1   122      6.3   826.9    0.00       1    81.6
 183    5:40   70.2    56    3.9   134      7.5   827.0    0.00       2    81.5
 183    5:50   69.9    56    2.9   124      5.8   827.2    0.00       1    81.4
 183    6:00   67.3    67    7.2    94     13.5   827.4    0.05       6    81.4
 183    6:10   64.8    74    8.7    82     15.1   827.6    0.02       7    81.2
 183    6:20   65.4    73    6.4    85     12.3   827.9    0.01       7    81.2
 183    6:30   65.0    75    4.3    86      9.2   827.9    0.00       7    81.1
 183    6:40   65.8    70    3.0   111      6.9   827.7    0.00       9    81.0
 183    6:50   66.2    68    6.0   102     10.4   827.7    0.00      14    80.9
 183    7:00   66.0    70    4.0   118     10.2   827.7    0.00      26    80.8
 183    7:10   66.4    69    4.4   129      9.1   827.7    0.00      46    80.7
 183    7:20   67.4    66    4.5   121      9.3   827.7    0.00      88    80.5
 183    7:30   68.9    62    3.1   150      6.7   827.7    0.00     158    80.4
 183    7:40   69.2    64    2.2   145      4.8   827.8    0.00     216    80.4
 183    7:50   70.3    59    4.8   114     10.8   827.9    0.00     230    80.3
 183    8:00   71.0    58    3.9   100      6.6   827.9    0.00     234    80.2
 183    8:10   72.0    57    2.1   117      4.5   827.9    0.00     235    80.1
 183    8:20   72.4    64    2.4   229      5.2   827.8    0.00     269    80.0
 183    8:30   72.6    64    2.0   110      4.3   827.8    0.00     263    79.9
 183    8:40   73.0    60    1.7    36      4.0   828.0    0.00     252    79.8
 183    8:50   73.5    53    2.3    52      4.4   828.0    0.00     284    79.8
 183    9:00   74.6    51    1.4   123      2.8   828.0    0.00     285    79.7
 183    9:10   75.6    48    1.4   270      3.0   828.0    0.00     354    79.7
 183    9:20   76.4    46    1.9   342      4.3   827.9    0.00     426    79.7
 183    9:30   75.3    51    2.6   356      6.1   827.9    0.00     330    79.6
 183    9:40   74.6    53    3.1    13      6.2   828.0    0.00     489    79.6
 183    9:50   76.8    46    2.3   344      5.5   828.1    0.00     714    79.6
 183   10:00   76.8    45    3.5   344      7.0   828.0    0.00     889    79.6
 183   10:10   78.4    42    2.2    10      5.6   827.8    0.00     735    79.7
 183   10:20   78.1    42    1.7   310      5.4   827.8    0.00     879    79.7
 183   10:30   80.2    37    1.7    71      5.0   827.7    0.00     924    79.8
 183   10:40   80.1    36    1.4     3      3.9   827.9    0.00     906    79.8
 183   10:50   80.4    35    1.6    21      4.2   827.8    0.00     884    79.8
 183   11:00   81.2    33    0.9    73      3.8   827.7    0.00     777    79.9
 183   11:10   82.5    33    0.3   320      2.6   828.0    0.00     858    80.0
 183   11:20   82.5    33    1.8   345      5.4   827.9    0.00    1016    80.1
 183   11:30   82.7    32    1.2   138      3.8   827.9    0.00     586    80.1
 183   11:40   82.4    32    1.4   346      4.7   827.8    0.00     558    80.2
 183   11:50   82.7    30    1.3    55      4.0   827.7    0.00     603    80.3
 183   12:00   83.3    29    2.1   300      6.4   827.6    0.00     711    80.4

Return to Cedar City, Utah graphs page.


Western Regional Climate Center,wrcc@dri.edu